Lewiston Nez Perce County Airport
KLWS : now visible

Airfield :











YOU CAN JOIN US ON...

 
LOGIN :

Register | Disclaimer

   EN    FR    IT 

 









Legend :    VFR   Marginal VFR   IFR   Intensive IFR   Very Intensive IFR
Visi :
Ceiling :
>= 8 km
>= 3000ft
5 to 8 km
1000 to 3000 ft
1500m to 5 km
500 to 1000 ft
800 to 1500m
200 to 500 ft
< 800m
< 200 ft
Symbols :   Thunderstorms  Fog  Heavy snow  Heavy precipitations  Wind > 20 kt






- Airport Elevation : 1442 ft
- IATA code : LWS


KLWS - Lewiston Nez Perce County

CURRENT METAR :
  • 191756Z 33004KT 10SM CLR 29/11 A2983 RMK AO2 SLP087 T02890111 10289 20222 58005

EXPIRED METARs :
  • 191656Z 00000KT 10SM CLR 26/11 A2985 RMK AO2 SLP094 T02610111
  • 191556Z 33004KT 10SM CLR 23/11 A2985 RMK AO2 SLP094 T02330111

TAF KLWS
Valid from the 19 at 18:00 until the 20 at 18:00 UTC


191723Z 1918/2018 31005KT P6SM BKN150 BKN200
FM200200 21007KT P6SM BKN120 BKN150
FM200700 16004KT P6SM BKN120 BKN150
FM201200 VRB03KT P6SM BKN250
KZSE FIR / North America



MET'MAP, your aeronautical weather chart ! - Copyright ORBIFLY December 2007 - Disclaimer

ORBIFLY MET'MAP TEAM :

Programming & Development : Alexandra Zaïnal
Original concept : Baudouin d'Aumeries
Technical & hardware support : Manuel Goepfert
Assistance : Marc-Olivier Méhu




SOURCES & CREDITS :

   NOAA       Earth
Advisory